Aviation Digital Data Service (ADDS)

Output produced by METARs form (0210 UTC 26 April 2017)
found at http://www.aviationweather.gov/adds/metars/
 
METAR text: KHAE 260155Z AUTO 17004KT 10SM BKN075 BKN085 23/07 A2945 RMK AO2
Conditions at: KHAE (HANNIBAL , MO, US) observed 0155 UTC 26 April 2017
Temperature: 23.0°C (73°F)
Dewpoint: 7.0°C (45°F) [RH = 36%]
Pressure (altimeter): 29.45 inches Hg (997.4 mb)
Winds: from the S (170 degrees) at 5 MPH (4 knots; 2.1 m/s)
Visibility: 10 or more miles (16+ km)
Ceiling: 7500 feet AGL
Clouds: broken clouds at 7500 feet AGL
broken clouds at 8500 feet AGL
Weather: automated observation with no human augmentation;
there may or may not be significant weather present at this time